createdAt,value
2022-07-31T00:00:22.365Z,5.47
2022-07-31T00:03:04.085Z,5.30
2022-07-31T00:05:31.620Z,5.95
2022-07-31T00:08:06.141Z,6.05
2022-07-31T00:10:33.609Z,5.00
2022-07-31T00:13:00.763Z,4.85
2022-07-31T00:15:28.060Z,5.75
2022-07-31T00:17:55.590Z,5.82
2022-07-31T00:20:22.709Z,6.20
2022-07-31T00:22:50.702Z,6.38
2022-07-31T00:25:18.982Z,6.55
2022-07-31T00:27:46.387Z,6.78
2022-07-31T00:30:13.966Z,6.72
2022-07-31T00:32:42.185Z,6.90
2022-07-31T00:35:09.963Z,7.07
2022-07-31T00:37:40.170Z,7.40
2022-07-31T00:40:10.950Z,7.40
2022-07-31T00:42:38.150Z,7.38
2022-07-31T00:45:05.825Z,7.38
2022-07-31T00:47:33.463Z,6.50
2022-07-31T00:50:00.931Z,6.40
2022-07-31T00:52:28.241Z,6.22
2022-07-31T00:54:55.630Z,7.60
2022-07-31T00:57:22.839Z,6.75
2022-07-31T00:59:50.151Z,6.88
2022-07-31T01:02:17.598Z,7.22
2022-07-31T01:04:45.820Z,6.97
2022-07-31T01:07:13.474Z,7.03
2022-07-31T01:09:40.811Z,8.40
2022-07-31T01:12:16.579Z,7.78
2022-07-31T01:14:46.359Z,8.30
2022-07-31T01:17:14.133Z,8.55
2022-07-31T01:19:43.431Z,8.98
2022-07-31T01:22:33.630Z,9.07
2022-07-31T01:25:05.171Z,8.70
2022-07-31T01:28:12.759Z,10.55
2022-07-31T01:30:50.372Z,11.02
2022-07-31T01:33:22.880Z,11.25
2022-07-31T01:35:55.480Z,11.55
2022-07-31T01:38:28.071Z,12.23
2022-07-31T01:40:58.102Z,13.52
2022-07-31T01:43:27.511Z,14.07
2022-07-31T01:45:56.500Z,15.88
2022-07-31T01:48:25.560Z,15.88
2022-07-31T01:50:54.613Z,15.98
2022-07-31T01:53:22.932Z,16.40
2022-07-31T01:56:01.931Z,17.13
2022-07-31T01:58:38.991Z,17.35
2022-07-31T02:01:30.153Z,17.10
2022-07-31T02:04:00.535Z,17.05
2022-07-31T02:06:30.940Z,17.08
2022-07-31T02:09:01.102Z,17.15
2022-07-31T02:11:29.180Z,15.00
2022-07-31T02:13:57.661Z,15.25
2022-07-31T02:16:26.990Z,15.30
2022-07-31T02:19:03.741Z,14.02
2022-07-31T02:21:31.643Z,12.38
2022-07-31T02:23:58.820Z,12.30
2022-07-31T02:26:27.640Z,11.95
2022-07-31T02:28:55.191Z,12.73
2022-07-31T02:31:24.804Z,11.43
2022-07-31T02:33:55.740Z,11.25
2022-07-31T02:36:23.620Z,11.75
2022-07-31T02:38:51.500Z,11.05
2022-07-31T02:41:19.640Z,10.95
2022-07-31T02:43:47.220Z,10.82
2022-07-31T02:46:20.460Z,10.90
2022-07-31T02:48:49.682Z,10.90
2022-07-31T02:51:18.582Z,11.68
2022-07-31T02:53:46.900Z,10.57
2022-07-31T02:56:15.950Z,12.32
2022-07-31T02:58:43.430Z,11.25
2022-07-31T03:01:19.958Z,11.40
2022-07-31T03:03:47.419Z,12.50
2022-07-31T03:06:17.875Z,10.80
2022-07-31T03:08:47.702Z,10.95
2022-07-31T03:11:19.461Z,11.65
2022-07-31T03:13:47.581Z,10.40
2022-07-31T03:16:14.741Z,9.85
2022-07-31T03:18:42.261Z,10.70
2022-07-31T03:21:10.990Z,9.90
2022-07-31T03:23:38.540Z,10.35
2022-07-31T03:26:10.669Z,8.98
2022-07-31T03:28:39.121Z,9.45
2022-07-31T03:31:08.105Z,11.10
2022-07-31T03:33:36.703Z,9.55
2022-07-31T03:36:04.884Z,9.23
2022-07-31T03:38:39.273Z,9.00
2022-07-31T03:41:19.221Z,8.90
2022-07-31T03:43:48.605Z,8.63
2022-07-31T03:46:22.356Z,6.25
2022-07-31T03:48:52.931Z,6.85
2022-07-31T03:51:21.592Z,5.78
2022-07-31T03:53:51.782Z,6.03
2022-07-31T03:56:38.371Z,5.80
2022-07-31T03:59:06.036Z,6.07
2022-07-31T04:02:07.044Z,5.85
2022-07-31T04:04:37.331Z,5.20
2022-07-31T04:07:05.815Z,5.07
2022-07-31T04:09:33.241Z,4.82
2022-07-31T04:12:01.582Z,5.60
2022-07-31T04:14:29.031Z,4.75
2022-07-31T04:16:56.705Z,4.15
2022-07-31T04:19:25.911Z,4.93
2022-07-31T04:21:53.801Z,4.60
2022-07-31T04:24:21.971Z,4.53
2022-07-31T04:27:10.781Z,4.07
2022-07-31T04:29:42.963Z,4.15
2022-07-31T04:32:10.623Z,4.57
2022-07-31T04:34:43.961Z,4.50
2022-07-31T04:37:11.432Z,4.22
2022-07-31T04:39:41.511Z,4.18
2022-07-31T04:42:11.465Z,4.43
2022-07-31T04:44:39.440Z,4.38
2022-07-31T04:47:07.712Z,3.97
2022-07-31T04:49:41.072Z,3.60
2022-07-31T04:52:09.003Z,4.22
2022-07-31T04:54:38.011Z,4.50
2022-07-31T04:57:08.430Z,4.32
2022-07-31T04:59:59.868Z,3.83
2022-07-31T05:02:23.271Z,4.70
2022-07-31T05:04:56.988Z,3.72
2022-07-31T05:07:30.181Z,3.90
2022-07-31T05:09:58.913Z,3.80
2022-07-31T05:12:26.763Z,3.17
2022-07-31T05:14:55.092Z,3.45
2022-07-31T05:17:22.251Z,3.10
2022-07-31T05:20:02.543Z,3.60
2022-07-31T05:22:52.221Z,3.10
2022-07-31T05:25:55.022Z,3.42
2022-07-31T05:28:29.744Z,2.60
2022-07-31T05:30:58.762Z,2.63
2022-07-31T05:33:26.671Z,2.30
2022-07-31T05:35:54.792Z,1.95
2022-07-31T05:38:23.091Z,2.10
2022-07-31T05:41:19.373Z,2.22
2022-07-31T05:46:37.101Z,1.75
2022-07-31T05:49:04.332Z,1.55
2022-07-31T05:51:31.957Z,1.20
2022-07-31T05:54:02.662Z,1.17
2022-07-31T05:56:49.001Z,1.15
2022-07-31T05:59:20.312Z,1.13
2022-07-31T06:01:48.807Z,1.20
2022-07-31T06:04:16.424Z,1.40
2022-07-31T06:06:46.241Z,1.25
2022-07-31T06:09:13.751Z,1.45
2022-07-31T06:11:44.286Z,1.00
2022-07-31T06:14:13.772Z,0.90
2022-07-31T06:17:13.459Z,0.73
2022-07-31T06:19:40.849Z,0.60
2022-07-31T06:22:08.462Z,0.68
2022-07-31T06:24:38.377Z,0.50
2022-07-31T06:27:10.570Z,0.60
2022-07-31T06:29:58.161Z,0.50
2022-07-31T06:32:25.313Z,0.55
2022-07-31T06:34:52.821Z,0.50
2022-07-31T06:37:20.441Z,0.50
2022-07-31T06:39:54.461Z,0.38
2022-07-31T06:42:46.862Z,0.40
2022-07-31T06:45:25.057Z,0.40
2022-07-31T06:48:20.045Z,0.30
2022-07-31T06:51:08.510Z,0.20
2022-07-31T06:53:47.581Z,0.30
2022-07-31T06:56:14.792Z,0.20
2022-07-31T06:58:42.563Z,0.28
2022-07-31T07:01:10.244Z,0.25
2022-07-31T07:03:37.412Z,0.32
2022-07-31T07:06:05.132Z,0.17
2022-07-31T07:08:33.262Z,0.20
2022-07-31T07:11:00.413Z,0.20
2022-07-31T07:13:46.100Z,0.20
2022-07-31T07:16:17.298Z,0.10
2022-07-31T07:18:44.933Z,0.20
2022-07-31T07:21:12.501Z,0.20
2022-07-31T07:23:40.865Z,0.20
2022-07-31T07:26:28.759Z,0.40
2022-07-31T07:28:56.412Z,0.30
2022-07-31T07:31:24.181Z,0.55
2022-07-31T07:33:52.341Z,0.30
2022-07-31T07:36:24.814Z,0.20
2022-07-31T07:39:03.440Z,0.20
2022-07-31T07:41:33.031Z,0.20
2022-07-31T07:44:01.262Z,0.30
2022-07-31T07:46:30.122Z,0.20
2022-07-31T07:49:01.721Z,0.30
2022-07-31T07:51:58.895Z,0.32
2022-07-31T07:54:39.792Z,0.22
2022-07-31T07:57:44.043Z,0.22
2022-07-31T08:00:43.910Z,0.30
2022-07-31T08:03:50.377Z,0.20
2022-07-31T08:06:02.482Z,0.40
2022-07-31T08:08:29.702Z,0.32
2022-07-31T08:11:09.115Z,0.20
2022-07-31T08:13:50.712Z,0.20
2022-07-31T08:16:57.862Z,0.40
2022-07-31T08:19:25.171Z,0.20
2022-07-31T08:21:52.442Z,0.20
2022-07-31T08:24:20.302Z,0.20
2022-07-31T08:27:11.293Z,0.20
2022-07-31T08:29:40.132Z,0.20
2022-07-31T08:32:18.585Z,0.20
2022-07-31T08:35:11.961Z,0.20
2022-07-31T08:38:02.455Z,0.20
2022-07-31T08:40:29.433Z,0.20
2022-07-31T08:42:57.078Z,0.25
2022-07-31T08:45:28.824Z,0.10
2022-07-31T08:48:12.598Z,0.40
2022-07-31T08:50:50.829Z,0.13
2022-07-31T08:53:42.961Z,0.20
2022-07-31T08:56:19.791Z,0.40
2022-07-31T08:58:48.581Z,0.50
2022-07-31T09:01:16.829Z,1.63
2022-07-31T09:03:49.855Z,0.50
2022-07-31T09:06:19.411Z,0.20
2022-07-31T09:08:47.604Z,0.30
2022-07-31T09:11:15.260Z,0.40
2022-07-31T09:14:05.400Z,0.13
2022-07-31T09:16:50.668Z,0.30
2022-07-31T09:19:53.414Z,0.22
2022-07-31T09:22:27.751Z,0.40
2022-07-31T09:25:09.779Z,0.30
2022-07-31T09:27:38.031Z,0.35
2022-07-31T09:30:07.662Z,0.30
2022-07-31T09:32:54.284Z,0.20
2022-07-31T09:35:40.081Z,0.32
2022-07-31T09:38:11.190Z,0.50
2022-07-31T09:41:53.408Z,1.15
2022-07-31T09:44:10.420Z,0.80
2022-07-31T09:46:43.133Z,0.82
2022-07-31T09:49:10.625Z,1.38
2022-07-31T09:51:40.860Z,0.85
2022-07-31T09:54:25.991Z,0.63
2022-07-31T09:56:59.031Z,0.40
2022-07-31T09:59:32.171Z,0.10
2022-07-31T10:02:00.011Z,0.40
2022-07-31T10:04:27.753Z,0.25
2022-07-31T10:06:56.581Z,0.35
2022-07-31T10:09:25.542Z,0.20
2022-07-31T10:12:19.531Z,0.20
2022-07-31T10:14:47.542Z,0.50
2022-07-31T10:17:16.071Z,0.20
2022-07-31T10:20:05.892Z,0.52
2022-07-31T10:22:59.635Z,0.77
2022-07-31T10:25:30.660Z,1.00
2022-07-31T10:27:59.020Z,1.40
2022-07-31T10:30:28.686Z,0.90
2022-07-31T10:33:01.819Z,0.70
2022-07-31T10:35:30.050Z,0.50
2022-07-31T10:38:19.227Z,0.30
2022-07-31T10:41:10.561Z,0.20
2022-07-31T10:43:48.802Z,0.30
2022-07-31T10:49:38.994Z,0.20
2022-07-31T10:52:32.202Z,0.20
2022-07-31T10:55:30.401Z,0.20
2022-07-31T10:58:33.941Z,0.30
2022-07-31T11:01:26.156Z,0.20
2022-07-31T11:04:11.511Z,0.30
2022-07-31T11:07:20.834Z,0.40
2022-07-31T11:10:10.154Z,0.30
2022-07-31T11:12:59.832Z,0.40
2022-07-31T11:15:38.093Z,0.30
2022-07-31T11:18:28.703Z,0.47
2022-07-31T11:21:17.807Z,0.45
2022-07-31T11:23:55.611Z,0.22
2022-07-31T11:26:33.046Z,0.40
2022-07-31T11:30:01.157Z,0.60
2022-07-31T11:31:51.182Z,0.50
2022-07-31T11:34:18.653Z,0.52
2022-07-31T11:36:50.721Z,0.50
2022-07-31T11:39:19.442Z,0.52
2022-07-31T11:41:54.536Z,0.40
2022-07-31T11:44:22.329Z,0.60
2022-07-31T11:46:50.241Z,0.63
2022-07-31T11:49:47.883Z,0.40
2022-07-31T11:52:30.597Z,0.43
2022-07-31T11:55:08.492Z,0.45
2022-07-31T11:57:51.774Z,0.30
2022-07-31T12:00:28.792Z,0.30
2022-07-31T12:02:58.127Z,0.20
2022-07-31T12:05:37.986Z,0.35
2022-07-31T12:08:06.929Z,0.20
2022-07-31T12:10:34.453Z,0.20
2022-07-31T12:13:02.507Z,0.30
2022-07-31T12:15:29.941Z,0.20
2022-07-31T12:18:05.426Z,0.20
2022-07-31T12:23:05.071Z,0.30
2022-07-31T12:25:42.789Z,0.10
2022-07-31T12:28:13.441Z,0.30
2022-07-31T12:30:41.082Z,0.20
2022-07-31T12:33:09.280Z,0.15
2022-07-31T12:35:55.962Z,0.20
2022-07-31T12:38:45.500Z,0.20
2022-07-31T12:41:14.165Z,0.20
2022-07-31T12:43:50.243Z,0.20
2022-07-31T12:46:35.955Z,0.20
2022-07-31T12:49:04.710Z,0.25
2022-07-31T12:51:45.040Z,0.95
2022-07-31T12:54:15.580Z,0.20
2022-07-31T12:56:43.964Z,0.20
2022-07-31T12:59:11.457Z,0.30
2022-07-31T13:01:39.078Z,0.30
2022-07-31T13:04:19.270Z,0.17
2022-07-31T13:06:48.966Z,0.40
2022-07-31T13:09:16.641Z,0.40
2022-07-31T13:11:45.524Z,0.30
2022-07-31T13:14:14.922Z,0.30
2022-07-31T13:16:42.282Z,0.50
2022-07-31T13:19:09.641Z,0.30
2022-07-31T13:21:48.300Z,0.45
2022-07-31T13:24:21.204Z,0.30
2022-07-31T13:26:49.441Z,0.40
2022-07-31T13:29:17.006Z,0.40
2022-07-31T13:31:44.722Z,0.40
2022-07-31T13:34:12.212Z,0.40
2022-07-31T13:36:40.050Z,0.50
2022-07-31T13:39:08.499Z,0.25
2022-07-31T13:41:36.142Z,0.32
2022-07-31T13:44:06.122Z,0.40
2022-07-31T13:46:33.590Z,0.52
2022-07-31T13:49:02.421Z,0.30
2022-07-31T13:51:30.235Z,0.55
2022-07-31T13:53:57.831Z,0.40
2022-07-31T13:56:39.279Z,0.40
2022-07-31T13:59:13.102Z,0.40
2022-07-31T14:02:03.821Z,0.68
2022-07-31T14:04:32.237Z,0.45
2022-07-31T14:07:03.376Z,0.60
2022-07-31T14:09:34.352Z,0.50
2022-07-31T14:12:03.794Z,0.73
2022-07-31T14:14:32.522Z,0.70
2022-07-31T14:16:59.712Z,0.40
2022-07-31T14:19:27.074Z,0.68
2022-07-31T14:21:56.071Z,0.75
2022-07-31T14:24:25.330Z,0.40
2022-07-31T14:26:53.381Z,0.50
2022-07-31T14:29:24.061Z,1.58
2022-07-31T14:31:51.340Z,0.70
2022-07-31T14:34:18.768Z,0.70
2022-07-31T14:36:46.977Z,0.50
2022-07-31T14:39:14.611Z,0.85
2022-07-31T14:41:42.829Z,0.88
2022-07-31T14:44:10.258Z,0.68
2022-07-31T14:46:40.720Z,0.80
2022-07-31T14:49:08.979Z,0.68
2022-07-31T14:51:36.462Z,0.85
2022-07-31T14:54:03.862Z,0.70
2022-07-31T14:57:00.805Z,1.02
2022-07-31T14:59:19.751Z,0.95
2022-07-31T15:01:47.045Z,1.00
2022-07-31T15:04:14.380Z,1.20
2022-07-31T15:06:56.023Z,0.88
2022-07-31T15:09:29.930Z,0.60
2022-07-31T15:11:59.899Z,1.13
2022-07-31T15:14:29.352Z,1.05
2022-07-31T15:16:56.821Z,2.50
2022-07-31T15:19:24.392Z,5.45
2022-07-31T15:22:10.425Z,1.40
2022-07-31T15:24:42.486Z,1.17
2022-07-31T15:27:14.702Z,1.40
2022-07-31T15:30:05.822Z,1.40
2022-07-31T15:32:30.542Z,0.90
2022-07-31T15:34:58.143Z,1.45
2022-07-31T15:37:25.353Z,1.85
2022-07-31T15:40:02.840Z,3.28
2022-07-31T15:42:34.581Z,4.03
2022-07-31T15:45:01.904Z,2.42
2022-07-31T15:47:29.168Z,3.72
2022-07-31T15:49:56.710Z,3.85
2022-07-31T15:52:24.121Z,3.17
2022-07-31T15:54:52.837Z,2.50
2022-07-31T15:57:21.616Z,2.78
2022-07-31T15:59:49.650Z,2.60
2022-07-31T16:02:17.341Z,2.38
2022-07-31T16:04:48.628Z,2.70
2022-07-31T16:08:34.739Z,2.38
2022-07-31T16:10:17.919Z,3.40
2022-07-31T16:12:45.926Z,2.80
2022-07-31T16:15:14.091Z,2.42
2022-07-31T16:17:41.675Z,2.55
2022-07-31T16:20:10.225Z,2.78
2022-07-31T16:22:38.222Z,3.20
2022-07-31T16:25:06.238Z,3.58
2022-07-31T16:27:33.611Z,3.97
2022-07-31T16:30:02.353Z,5.05
2022-07-31T16:32:30.792Z,4.38
2022-07-31T16:35:01.057Z,4.60
2022-07-31T16:37:50.903Z,4.85
2022-07-31T16:40:30.773Z,5.15
2022-07-31T16:43:01.111Z,6.50
2022-07-31T16:45:29.043Z,4.75
2022-07-31T16:47:56.551Z,5.15
2022-07-31T16:50:24.382Z,4.90
2022-07-31T16:52:54.867Z,5.43
2022-07-31T16:55:59.812Z,4.57
2022-07-31T16:58:15.031Z,4.13
2022-07-31T17:00:42.328Z,4.97
2022-07-31T17:03:58.810Z,4.75
2022-07-31T17:05:57.396Z,4.70
2022-07-31T17:08:24.621Z,5.03
2022-07-31T17:10:54.686Z,5.15
2022-07-31T17:13:23.231Z,4.88
2022-07-31T17:15:50.532Z,5.13
2022-07-31T17:18:17.782Z,4.95
2022-07-31T17:20:47.322Z,6.82
2022-07-31T17:23:15.748Z,7.80
2022-07-31T17:25:43.311Z,9.88
2022-07-31T17:28:15.233Z,9.45
2022-07-31T17:30:42.781Z,9.43
2022-07-31T17:33:10.191Z,9.30
2022-07-31T17:35:40.100Z,8.88
2022-07-31T17:38:07.441Z,9.02
2022-07-31T17:40:43.533Z,8.57
2022-07-31T17:43:11.653Z,8.82
2022-07-31T17:45:59.438Z,9.02
2022-07-31T17:48:28.791Z,8.45
2022-07-31T17:50:56.295Z,9.27
2022-07-31T17:53:23.561Z,8.90
2022-07-31T17:55:58.881Z,8.70
2022-07-31T17:58:26.299Z,8.77
2022-07-31T18:00:53.761Z,8.82
2022-07-31T18:03:21.327Z,9.18
2022-07-31T18:05:48.692Z,8.75
2022-07-31T18:08:15.980Z,7.50
2022-07-31T18:10:53.989Z,7.53
2022-07-31T18:13:22.551Z,7.30
2022-07-31T18:15:50.281Z,7.88
2022-07-31T18:18:17.692Z,8.75
2022-07-31T18:20:46.052Z,11.38
2022-07-31T18:23:14.410Z,11.30
2022-07-31T18:25:42.448Z,11.55
2022-07-31T18:28:09.790Z,12.13
2022-07-31T18:30:41.151Z,10.82
2022-07-31T18:33:08.560Z,10.48
2022-07-31T18:35:37.051Z,10.68
2022-07-31T18:38:04.740Z,9.88
2022-07-31T18:40:32.961Z,9.55
2022-07-31T18:43:00.349Z,8.85
2022-07-31T18:45:28.190Z,9.43
2022-07-31T18:47:55.573Z,8.68
2022-07-31T18:50:59.788Z,7.95
2022-07-31T18:53:10.550Z,7.47
2022-07-31T18:55:37.750Z,8.68
2022-07-31T18:58:05.681Z,9.55
2022-07-31T19:00:33.344Z,9.18
2022-07-31T19:03:00.821Z,9.15
2022-07-31T19:05:28.112Z,9.82
2022-07-31T19:07:55.861Z,9.80
2022-07-31T19:10:29.758Z,9.23
2022-07-31T19:15:26.062Z,9.82
2022-07-31T19:17:54.785Z,9.07
2022-07-31T19:20:57.450Z,9.98
2022-07-31T19:23:15.811Z,10.20
2022-07-31T19:26:03.126Z,10.75
2022-07-31T19:28:32.082Z,10.05
2022-07-31T19:30:59.720Z,9.38
2022-07-31T19:33:26.990Z,8.95
2022-07-31T19:36:00.942Z,8.68
2022-07-31T19:38:30.170Z,8.50
2022-07-31T19:40:57.480Z,8.30
2022-07-31T19:43:24.826Z,9.07
2022-07-31T19:45:58.638Z,8.50
2022-07-31T19:48:40.807Z,7.93
2022-07-31T19:51:08.813Z,8.02
2022-07-31T19:53:36.140Z,8.30
2022-07-31T19:56:05.942Z,8.02
2022-07-31T19:58:35.154Z,8.82
2022-07-31T20:01:03.821Z,8.20
2022-07-31T20:03:31.342Z,7.95
2022-07-31T20:05:59.018Z,8.30
2022-07-31T20:08:26.360Z,5.88
2022-07-31T20:10:59.712Z,6.55
2022-07-31T20:13:28.270Z,6.95
2022-07-31T20:15:55.440Z,6.72
2022-07-31T20:18:28.781Z,5.93
2022-07-31T20:20:58.021Z,5.40
2022-07-31T20:23:28.291Z,5.18
2022-07-31T20:25:55.680Z,5.07
2022-07-31T20:28:23.417Z,6.40
2022-07-31T20:30:50.787Z,5.00
2022-07-31T20:33:18.100Z,5.07
2022-07-31T20:35:48.838Z,4.07
2022-07-31T20:38:23.690Z,5.25
2022-07-31T20:40:54.497Z,4.88
2022-07-31T20:43:23.802Z,4.88
2022-07-31T20:45:51.667Z,4.70
2022-07-31T20:48:21.264Z,4.20
2022-07-31T20:50:48.852Z,4.30
2022-07-31T20:53:16.791Z,4.68
2022-07-31T20:55:49.647Z,3.85
2022-07-31T20:58:18.141Z,4.82
2022-07-31T21:00:47.649Z,5.30
2022-07-31T21:03:16.361Z,4.45
2022-07-31T21:05:44.052Z,4.80
2022-07-31T21:08:15.049Z,4.25
2022-07-31T21:10:42.362Z,4.70
2022-07-31T21:13:09.675Z,4.90
2022-07-31T21:15:42.665Z,4.97
2022-07-31T21:18:12.922Z,4.75
2022-07-31T21:20:51.946Z,4.75
2022-07-31T21:23:21.692Z,4.55
2022-07-31T21:25:49.581Z,3.80
2022-07-31T21:28:17.003Z,4.00
2022-07-31T21:30:44.430Z,4.32
2022-07-31T21:33:12.110Z,4.60
2022-07-31T21:35:40.306Z,3.67
2022-07-31T21:38:11.855Z,5.38
2022-07-31T21:40:40.679Z,4.82
2022-07-31T21:43:08.690Z,4.53
2022-07-31T21:45:45.639Z,4.35
2022-07-31T21:48:25.295Z,4.65
2022-07-31T21:50:53.337Z,4.07
2022-07-31T21:53:20.622Z,4.50
2022-07-31T21:55:48.180Z,4.78
2022-07-31T21:58:15.543Z,4.40
2022-07-31T22:00:43.171Z,4.00
2022-07-31T22:03:10.883Z,4.43
2022-07-31T22:06:16.321Z,4.05
2022-07-31T22:08:44.080Z,4.18
2022-07-31T22:11:11.291Z,4.30
2022-07-31T22:13:38.721Z,4.05
2022-07-31T22:16:06.321Z,4.00
2022-07-31T22:18:34.320Z,4.63
2022-07-31T22:21:04.641Z,3.83
2022-07-31T22:23:32.411Z,4.13
2022-07-31T22:25:59.811Z,3.92
2022-07-31T22:28:27.726Z,4.05
2022-07-31T22:30:55.865Z,3.78
2022-07-31T22:33:23.615Z,3.72
2022-07-31T22:35:59.969Z,3.97
2022-07-31T22:38:31.324Z,3.70
2022-07-31T22:40:59.369Z,3.97
2022-07-31T22:44:11.320Z,3.80
2022-07-31T22:46:14.424Z,3.75
2022-07-31T22:48:41.848Z,3.35
2022-07-31T22:51:10.765Z,3.60
2022-07-31T22:53:44.409Z,3.33
2022-07-31T22:56:12.067Z,3.90
2022-07-31T22:58:39.407Z,4.10
2022-07-31T23:01:07.672Z,3.60
2022-07-31T23:03:34.800Z,4.43
2022-07-31T23:06:30.969Z,3.28
2022-07-31T23:08:54.706Z,3.15
2022-07-31T23:11:23.270Z,3.30
2022-07-31T23:13:51.482Z,3.20
2022-07-31T23:16:19.231Z,3.50
2022-07-31T23:18:46.381Z,3.65
2022-07-31T23:21:13.811Z,2.65
2022-07-31T23:23:40.994Z,2.80
2022-07-31T23:26:20.489Z,3.10
2022-07-31T23:28:48.307Z,3.35
2022-07-31T23:31:15.462Z,3.30
2022-07-31T23:33:43.196Z,2.97
2022-07-31T23:36:10.755Z,3.70
2022-07-31T23:38:37.995Z,3.50
2022-07-31T23:41:05.462Z,3.67
2022-07-31T23:43:32.742Z,3.83
2022-07-31T23:45:59.931Z,3.60
2022-07-31T23:48:30.010Z,3.60
2022-07-31T23:50:58.036Z,4.00
2022-07-31T23:53:25.311Z,4.40
2022-07-31T23:55:56.431Z,3.85
2022-07-31T23:58:23.662Z,4.28
